createdAt,value
2018-01-16T00:00:25.144Z,4
2018-01-16T00:01:34.415Z,4
2018-01-16T00:02:43.867Z,4
2018-01-16T00:03:53.590Z,4
2018-01-16T00:05:02.780Z,4
2018-01-16T00:06:12.242Z,4
2018-01-16T00:07:21.741Z,4
2018-01-16T00:08:31.198Z,4
2018-01-16T00:09:40.945Z,4
2018-01-16T00:10:50.408Z,4
2018-01-16T00:12:00.131Z,4
2018-01-16T00:13:09.594Z,0
2018-01-16T00:14:19.045Z,0
2018-01-16T00:15:28.506Z,4
2018-01-16T00:16:37.811Z,4
2018-01-16T00:17:48.005Z,0
2018-01-16T00:18:57.822Z,4
2018-01-16T00:20:07.146Z,4
2018-01-16T00:21:17.252Z,4
2018-01-16T00:22:26.190Z,4
2018-01-16T00:23:35.661Z,4
2018-01-16T00:24:45.651Z,4
2018-01-16T00:25:54.841Z,4
2018-01-16T00:27:04.293Z,4
2018-01-16T00:28:14.092Z,4
2018-01-16T00:29:23.804Z,0
2018-01-16T00:30:33.513Z,4
2018-01-16T00:31:43.262Z,4
2018-01-16T00:32:52.712Z,0
2018-01-16T00:34:02.159Z,0
2018-01-16T00:35:12.129Z,0
2018-01-16T00:36:21.725Z,4
2018-01-16T00:37:31.173Z,4
2018-01-16T00:38:41.145Z,4
2018-01-16T00:39:50.344Z,4
2018-01-16T00:40:59.284Z,4
2018-01-16T00:42:08.469Z,4
2018-01-16T00:43:17.920Z,4
2018-01-16T00:44:27.199Z,4
2018-01-16T00:45:36.109Z,4
2018-01-16T00:46:45.562Z,0
2018-01-16T00:47:54.749Z,0
2018-01-16T00:49:04.204Z,0
2018-01-16T00:50:13.413Z,0
2018-01-16T00:51:23.125Z,0
2018-01-16T00:52:32.877Z,0
2018-01-16T00:53:42.354Z,0
2018-01-16T00:54:52.338Z,0
2018-01-16T00:56:02.048Z,0
2018-01-16T00:57:11.511Z,0
2018-01-16T00:58:20.961Z,0
2018-01-16T00:59:29.642Z,0
2018-01-16T01:00:39.132Z,0
2018-01-16T01:01:49.140Z,0
2018-01-16T01:02:58.890Z,0
2018-01-16T01:04:07.810Z,0
2018-01-16T01:05:17.527Z,0
2018-01-16T01:06:27.286Z,0
2018-01-16T01:07:37.063Z,0
2018-01-16T01:08:46.785Z,0
2018-01-16T01:09:55.972Z,0
2018-01-16T01:11:05.622Z,0
2018-01-16T01:12:15.491Z,0
2018-01-16T01:13:25.492Z,0
2018-01-16T01:14:34.945Z,0
2018-01-16T01:15:44.398Z,0
2018-01-16T01:16:53.847Z,0
2018-01-16T01:18:03.302Z,0
2018-01-16T01:19:13.016Z,0
2018-01-16T01:20:22.993Z,0
2018-01-16T01:21:32.181Z,0
2018-01-16T01:22:41.894Z,0
2018-01-16T01:23:51.343Z,0
2018-01-16T01:25:00.799Z,0
2018-01-16T01:26:09.999Z,0
2018-01-16T01:27:19.185Z,0
2018-01-16T01:28:28.369Z,0
2018-01-16T01:29:37.864Z,0
2018-01-16T01:30:46.778Z,0
2018-01-16T01:31:55.963Z,0
2018-01-16T01:33:05.415Z,0
2018-01-16T01:34:15.186Z,0
2018-01-16T01:35:24.633Z,0
2018-01-16T01:36:34.429Z,0
2018-01-16T01:37:44.143Z,0
2018-01-16T01:38:53.426Z,0
2018-01-16T01:40:03.142Z,0
2018-01-16T01:41:12.859Z,0
2018-01-16T01:42:22.309Z,0
2018-01-16T01:43:32.165Z,0
2018-01-16T01:44:41.366Z,0
2018-01-16T01:45:51.108Z,0
2018-01-16T01:47:00.569Z,0
2018-01-16T01:48:10.366Z,0
2018-01-16T01:49:20.081Z,0
2018-01-16T01:50:29.538Z,0
2018-01-16T01:51:39.520Z,0
2018-01-16T01:52:48.969Z,0
2018-01-16T01:53:58.681Z,0
2018-01-16T01:55:07.870Z,0
2018-01-16T01:56:17.320Z,0
2018-01-16T01:57:26.391Z,0
2018-01-16T01:58:35.661Z,0
2018-01-16T01:59:45.107Z,0
2018-01-16T02:00:54.700Z,0
2018-01-16T02:02:03.884Z,0
2018-01-16T02:03:13.330Z,0
2018-01-16T02:04:22.781Z,0
2018-01-16T02:05:31.971Z,0
2018-01-16T02:06:41.685Z,0
2018-01-16T02:07:50.609Z,0
2018-01-16T02:09:00.377Z,0
2018-01-16T02:10:10.466Z,0
2018-01-16T02:11:20.179Z,0
2018-01-16T02:12:29.956Z,0
2018-01-16T02:13:39.408Z,0
2018-01-16T02:14:49.122Z,0
2018-01-16T02:15:58.308Z,0
2018-01-16T02:17:08.289Z,0
2018-01-16T02:18:18.425Z,0
2018-01-16T02:19:27.611Z,0
2018-01-16T02:20:37.066Z,0
2018-01-16T02:21:47.044Z,0
2018-01-16T02:22:56.760Z,0
2018-01-16T02:24:06.382Z,0
2018-01-16T02:25:15.571Z,0
2018-01-16T02:26:25.027Z,0
2018-01-16T02:27:34.747Z,0
2018-01-16T02:28:44.203Z,0
2018-01-16T02:29:53.656Z,0
2018-01-16T02:31:02.845Z,0
2018-01-16T02:32:12.299Z,0
2018-01-16T02:33:22.297Z,0
2018-01-16T02:34:31.756Z,0
2018-01-16T02:35:41.750Z,0
2018-01-16T02:36:51.520Z,0
2018-01-16T02:38:01.514Z,0
2018-01-16T02:39:11.251Z,0
2018-01-16T02:40:20.990Z,0
2018-01-16T02:41:30.745Z,0
2018-01-16T02:42:39.952Z,0
2018-01-16T02:43:49.963Z,0
2018-01-16T02:44:59.700Z,0
2018-01-16T02:46:09.180Z,0
2018-01-16T02:47:18.643Z,0
2018-01-16T02:48:28.107Z,0
2018-01-16T02:49:37.572Z,0
2018-01-16T02:50:47.334Z,0
2018-01-16T02:51:57.067Z,0
2018-01-16T02:53:06.685Z,0
2018-01-16T02:54:15.874Z,0
2018-01-16T02:55:25.063Z,0
2018-01-16T02:56:34.784Z,0
2018-01-16T02:57:44.243Z,0
2018-01-16T02:58:53.443Z,0
2018-01-16T03:00:03.433Z,0
2018-01-16T03:01:12.890Z,0
2018-01-16T03:02:22.908Z,0
2018-01-16T03:03:32.625Z,0
2018-01-16T03:04:42.343Z,0
2018-01-16T03:05:52.059Z,0
2018-01-16T03:07:01.774Z,0
2018-01-16T03:08:10.964Z,0
2018-01-16T03:09:20.422Z,0
2018-01-16T03:10:29.895Z,0
2018-01-16T03:11:39.364Z,0
2018-01-16T03:12:49.382Z,0
2018-01-16T03:13:58.574Z,0
2018-01-16T03:15:08.027Z,0
2018-01-16T03:16:17.230Z,0
2018-01-16T03:17:26.424Z,0
2018-01-16T03:18:36.176Z,0
2018-01-16T03:19:45.360Z,0
2018-01-16T03:20:54.813Z,0
2018-01-16T03:22:04.526Z,0
2018-01-16T03:23:13.977Z,0
2018-01-16T03:24:23.691Z,0
2018-01-16T03:25:32.887Z,0
2018-01-16T03:26:42.075Z,0
2018-01-16T03:27:51.260Z,0
2018-01-16T03:29:00.710Z,0
2018-01-16T03:30:10.168Z,0
2018-01-16T03:31:20.169Z,0
2018-01-16T03:32:29.637Z,0
2018-01-16T03:33:39.501Z,0
2018-01-16T03:34:48.959Z,0
2018-01-16T03:35:58.422Z,0
2018-01-16T03:37:07.875Z,0
2018-01-16T03:38:17.595Z,0
2018-01-16T03:39:27.055Z,0
2018-01-16T03:40:36.773Z,0
2018-01-16T03:41:46.223Z,0
2018-01-16T03:42:55.416Z,0
2018-01-16T03:44:05.135Z,0
2018-01-16T03:45:14.323Z,0
2018-01-16T03:46:23.786Z,0
2018-01-16T03:47:33.240Z,0
2018-01-16T03:48:42.442Z,0
2018-01-16T03:49:52.426Z,0
2018-01-16T03:51:01.874Z,0
2018-01-16T03:52:11.073Z,4
2018-01-16T03:53:20.789Z,4
2018-01-16T03:54:30.771Z,4
2018-01-16T03:55:40.231Z,4
2018-01-16T03:56:49.836Z,4
2018-01-16T03:57:59.633Z,4
2018-01-16T03:59:08.558Z,0
2018-01-16T04:00:18.016Z,0
2018-01-16T04:01:27.753Z,0
2018-01-16T04:02:37.209Z,0
2018-01-16T04:03:47.226Z,4
2018-01-16T04:04:57.171Z,4
2018-01-16T04:06:06.989Z,4
2018-01-16T04:07:15.915Z,4
2018-01-16T04:08:25.910Z,4
2018-01-16T04:09:35.361Z,4
2018-01-16T04:10:44.549Z,4
2018-01-16T04:11:54.305Z,4
2018-01-16T04:13:04.292Z,4
2018-01-16T04:14:13.898Z,4
2018-01-16T04:15:22.821Z,4
2018-01-16T04:16:32.555Z,4
2018-01-16T04:17:42.006Z,4
2018-01-16T04:18:51.722Z,4
2018-01-16T04:20:01.457Z,4
2018-01-16T04:21:11.181Z,4
2018-01-16T04:22:20.633Z,4
2018-01-16T04:23:29.825Z,4
2018-01-16T04:24:39.279Z,4
2018-01-16T04:25:48.733Z,4
2018-01-16T04:26:58.450Z,4
2018-01-16T04:28:07.643Z,4
2018-01-16T04:29:16.568Z,4
2018-01-16T04:30:25.765Z,4
2018-01-16T04:31:35.218Z,4
2018-01-16T04:32:44.934Z,4
2018-01-16T04:33:54.146Z,4
2018-01-16T04:35:03.883Z,4
2018-01-16T04:36:13.341Z,4
2018-01-16T04:37:23.210Z,4
2018-01-16T04:38:33.202Z,4
2018-01-16T04:39:43.179Z,4
2018-01-16T04:40:52.902Z,4
2018-01-16T04:42:02.631Z,4
2018-01-16T04:43:12.344Z,4
2018-01-16T04:44:21.811Z,4
2018-01-16T04:45:31.264Z,4
2018-01-16T04:46:40.451Z,4
2018-01-16T04:47:50.168Z,4
2018-01-16T04:48:59.623Z,4
2018-01-16T04:50:09.074Z,4
2018-01-16T04:51:18.267Z,4
2018-01-16T04:52:28.254Z,4
2018-01-16T04:53:37.996Z,4
2018-01-16T04:54:47.601Z,4
2018-01-16T04:55:57.586Z,4
2018-01-16T04:57:07.356Z,4
2018-01-16T04:58:17.076Z,4
2018-01-16T04:59:26.796Z,4
2018-01-16T05:00:36.512Z,4
2018-01-16T05:01:46.227Z,4
2018-01-16T05:02:55.942Z,4
2018-01-16T05:04:05.399Z,4
2018-01-16T05:05:15.378Z,0
2018-01-16T05:06:24.301Z,4
2018-01-16T05:07:33.755Z,0
2018-01-16T05:08:43.738Z,0
2018-01-16T05:09:53.243Z,0
2018-01-16T05:11:02.966Z,4
2018-01-16T05:12:12.037Z,4
2018-01-16T05:13:21.508Z,0
2018-01-16T05:14:30.699Z,4
2018-01-16T05:15:39.894Z,4
2018-01-16T05:16:49.085Z,4
2018-01-16T05:17:58.804Z,4
2018-01-16T05:19:07.730Z,4
2018-01-16T05:20:17.445Z,4
2018-01-16T05:21:26.635Z,4
2018-01-16T05:22:35.824Z,4
2018-01-16T05:23:45.807Z,4
2018-01-16T05:24:55.261Z,4
2018-01-16T05:26:05.064Z,0
2018-01-16T05:27:14.784Z,0
2018-01-16T05:28:24.237Z,0
2018-01-16T05:29:33.690Z,0
2018-01-16T05:30:43.180Z,0
2018-01-16T05:31:53.154Z,0
2018-01-16T05:33:02.884Z,0
2018-01-16T05:34:12.074Z,0
2018-01-16T05:35:21.526Z,0
2018-01-16T05:36:31.243Z,0
2018-01-16T05:37:40.959Z,0
2018-01-16T05:38:50.677Z,0
2018-01-16T05:40:00.153Z,0
2018-01-16T05:41:09.877Z,0
2018-01-16T05:42:19.332Z,0
2018-01-16T05:43:28.785Z,0
2018-01-16T05:44:38.537Z,0
2018-01-16T05:45:47.989Z,0
2018-01-16T05:46:57.972Z,0
2018-01-16T05:48:07.426Z,0
2018-01-16T05:49:17.196Z,0
2018-01-16T05:50:26.922Z,0
2018-01-16T05:51:36.916Z,0
2018-01-16T05:52:46.372Z,0
2018-01-16T05:53:56.096Z,0
2018-01-16T05:55:05.559Z,0
2018-01-16T05:56:14.761Z,0
2018-01-16T05:57:24.223Z,0
2018-01-16T05:58:34.249Z,0
2018-01-16T05:59:43.972Z,0
2018-01-16T06:00:53.770Z,0
2018-01-16T06:02:03.229Z,0
2018-01-16T06:03:12.686Z,0
2018-01-16T06:04:22.674Z,0
2018-01-16T06:05:32.394Z,0
2018-01-16T06:06:42.107Z,0
2018-01-16T06:07:51.826Z,0
2018-01-16T06:09:01.815Z,0
2018-01-16T06:10:11.280Z,0
2018-01-16T06:11:20.469Z,0
2018-01-16T06:12:29.917Z,0
2018-01-16T06:13:39.643Z,4
2018-01-16T06:14:48.841Z,4
2018-01-16T06:15:58.411Z,4
2018-01-16T06:17:07.607Z,4
2018-01-16T06:18:16.809Z,4
2018-01-16T06:19:26.534Z,4
2018-01-16T06:20:36.002Z,4
2018-01-16T06:21:45.718Z,4
2018-01-16T06:22:54.911Z,4
2018-01-16T06:24:04.687Z,4
2018-01-16T06:25:14.667Z,4
2018-01-16T06:26:24.394Z,4
2018-01-16T06:27:34.375Z,4
2018-01-16T06:28:43.830Z,4
2018-01-16T06:29:53.282Z,4
2018-01-16T06:31:03.279Z,4
2018-01-16T06:32:12.743Z,4
2018-01-16T06:33:22.730Z,4
2018-01-16T06:34:31.914Z,4
2018-01-16T06:35:41.368Z,4
2018-01-16T06:36:50.820Z,4
2018-01-16T06:38:00.563Z,4
2018-01-16T06:39:10.282Z,4
2018-01-16T06:40:20.002Z,4
2018-01-16T06:41:29.721Z,4
2018-01-16T06:42:39.359Z,4
2018-01-16T06:43:49.142Z,4
2018-01-16T06:44:58.608Z,4
2018-01-16T06:46:08.065Z,4
2018-01-16T06:47:17.609Z,4
2018-01-16T06:48:27.409Z,4
2018-01-16T06:49:36.599Z,4
2018-01-16T06:50:46.137Z,0
2018-01-16T06:51:55.344Z,0
2018-01-16T06:53:04.602Z,0
2018-01-16T06:54:14.062Z,4
2018-01-16T06:55:23.520Z,4
2018-01-16T06:56:32.834Z,4
2018-01-16T06:57:42.291Z,4
2018-01-16T06:58:52.007Z,4
2018-01-16T07:00:01.996Z,4
2018-01-16T07:01:11.769Z,8
2018-01-16T07:02:21.257Z,4
2018-01-16T07:03:30.713Z,4
2018-01-16T07:04:40.163Z,8
2018-01-16T07:05:50.158Z,4
2018-01-16T07:06:59.611Z,8
2018-01-16T07:08:09.097Z,4
2018-01-16T07:09:18.287Z,8
2018-01-16T07:10:28.278Z,8
2018-01-16T07:11:37.594Z,8
2018-01-16T07:12:46.971Z,8
2018-01-16T07:13:56.692Z,12
2018-01-16T07:15:06.425Z,8
2018-01-16T07:16:16.147Z,8
2018-01-16T07:17:25.606Z,12
2018-01-16T07:18:34.805Z,16
2018-01-16T07:19:43.996Z,16
2018-01-16T07:20:53.714Z,20
2018-01-16T07:22:03.492Z,28
2018-01-16T07:23:13.002Z,28
2018-01-16T07:24:22.466Z,28
2018-01-16T07:25:31.658Z,24
2018-01-16T07:26:41.377Z,20
2018-01-16T07:27:50.838Z,20
2018-01-16T07:29:00.881Z,16
2018-01-16T07:30:10.599Z,12
2018-01-16T07:31:19.547Z,12
2018-01-16T07:32:29.277Z,16
2018-01-16T07:33:38.741Z,32
2018-01-16T07:34:48.728Z,52
2018-01-16T07:35:58.303Z,64
2018-01-16T07:37:07.811Z,68
2018-01-16T07:38:17.822Z,68
2018-01-16T07:39:27.545Z,72
2018-01-16T07:40:36.742Z,76
2018-01-16T07:41:46.195Z,72
2018-01-16T07:42:56.188Z,80
2018-01-16T07:44:05.914Z,88
2018-01-16T07:45:15.906Z,92
2018-01-16T07:46:25.892Z,92
2018-01-16T07:47:35.647Z,88
2018-01-16T07:48:45.643Z,80
2018-01-16T07:51:04.832Z,64
2018-01-16T07:52:14.703Z,84
2018-01-16T07:53:23.943Z,80
2018-01-16T07:54:33.811Z,92
2018-01-16T07:55:43.265Z,148
2018-01-16T07:56:52.455Z,196
2018-01-16T07:58:01.644Z,292
2018-01-16T07:59:11.379Z,332
2018-01-16T08:00:20.582Z,348
2018-01-16T08:01:30.299Z,340
2018-01-16T08:02:39.490Z,344
2018-01-16T08:03:49.469Z,336
2018-01-16T08:04:59.192Z,332
2018-01-16T08:06:09.058Z,340
2018-01-16T08:07:18.529Z,416
2018-01-16T08:08:28.265Z,444
2018-01-16T08:09:37.769Z,396
2018-01-16T08:10:47.745Z,448
2018-01-16T08:11:56.933Z,512
2018-01-16T08:13:06.388Z,612
2018-01-16T08:14:15.920Z,764
2018-01-16T08:15:25.630Z,936
2018-01-16T08:16:35.083Z,1080
2018-01-16T08:17:44.010Z,972
2018-01-16T08:18:53.472Z,980
2018-01-16T08:20:02.928Z,976
2018-01-16T08:21:12.383Z,940
2018-01-16T08:22:21.898Z,912
2018-01-16T08:23:31.353Z,896
2018-01-16T08:24:40.802Z,820
2018-01-16T08:25:50.518Z,708
2018-01-16T08:27:00.280Z,548
2018-01-16T08:28:10.106Z,608
2018-01-16T08:29:19.605Z,680
2018-01-16T08:30:29.413Z,768
2018-01-16T08:31:39.395Z,800
2018-01-16T08:32:49.116Z,544
2018-01-16T08:33:58.042Z,396
2018-01-16T08:35:07.515Z,364
2018-01-16T08:36:17.267Z,292
2018-01-16T08:37:26.753Z,228
2018-01-16T08:38:35.949Z,220
2018-01-16T08:39:45.715Z,312
2018-01-16T08:40:55.178Z,488
2018-01-16T08:42:04.977Z,420
2018-01-16T08:43:14.100Z,472
2018-01-16T08:44:22.845Z,520
2018-01-16T08:45:32.099Z,472
2018-01-16T08:46:41.062Z,368
2018-01-16T08:47:50.773Z,304
2018-01-16T08:49:00.251Z,340
2018-01-16T08:50:09.450Z,356
2018-01-16T08:51:19.235Z,308
2018-01-16T08:52:28.697Z,256
2018-01-16T08:53:38.722Z,264
2018-01-16T08:54:48.441Z,372
2018-01-16T08:55:57.635Z,336
2018-01-16T08:57:07.372Z,268
2018-01-16T08:58:17.091Z,264
2018-01-16T08:59:26.589Z,388
2018-01-16T09:00:36.047Z,568
2018-01-16T09:01:45.827Z,644
2018-01-16T09:02:55.603Z,700
2018-01-16T09:04:05.377Z,768
2018-01-16T09:05:15.122Z,844
2018-01-16T09:06:24.056Z,912
2018-01-16T09:07:33.509Z,828
2018-01-16T09:08:42.451Z,792
2018-01-16T09:09:51.908Z,804
2018-01-16T09:11:01.120Z,848
2018-01-16T09:12:10.574Z,964
2018-01-16T09:13:20.584Z,1204
2018-01-16T09:14:29.784Z,1200
2018-01-16T09:15:38.709Z,1164
2018-01-16T09:16:47.910Z,1104
2018-01-16T09:17:57.919Z,1244
2018-01-16T09:19:07.918Z,1288
2018-01-16T09:20:17.393Z,1084
2018-01-16T09:21:26.846Z,984
2018-01-16T09:22:36.824Z,868
2018-01-16T09:23:46.604Z,864
2018-01-16T09:24:56.388Z,836
2018-01-16T09:26:06.398Z,908
2018-01-16T09:27:15.341Z,712
2018-01-16T09:28:25.079Z,576
2018-01-16T09:29:35.466Z,564
2018-01-16T09:30:44.825Z,580
2018-01-16T09:31:54.275Z,604
2018-01-16T09:33:04.009Z,584
2018-01-16T09:34:13.202Z,852
2018-01-16T09:35:23.219Z,1348
2018-01-16T09:36:32.691Z,1632
2018-01-16T09:37:42.414Z,1488
2018-01-16T09:38:52.138Z,1292
2018-01-16T09:40:01.894Z,1536
2018-01-16T09:41:11.646Z,1264
2018-01-16T09:42:21.368Z,504
2018-01-16T09:43:30.560Z,364
2018-01-16T09:44:40.407Z,276
2018-01-16T09:45:49.914Z,260
2018-01-16T09:47:00.037Z,296
2018-01-16T09:48:10.271Z,252
2018-01-16T09:49:20.150Z,220
2018-01-16T09:50:29.435Z,196
2018-01-16T09:51:38.662Z,196
2018-01-16T09:52:48.004Z,176
2018-01-16T09:53:57.748Z,168
2018-01-16T09:55:07.746Z,156
2018-01-16T09:56:16.937Z,172
2018-01-16T09:57:26.656Z,196
2018-01-16T09:58:36.391Z,232
2018-01-16T09:59:46.380Z,300
2018-01-16T10:00:55.573Z,340
2018-01-16T10:02:05.292Z,420
2018-01-16T10:03:14.480Z,492
2018-01-16T10:04:24.559Z,548
2018-01-16T10:05:34.278Z,484
2018-01-16T10:06:44.284Z,416
2018-01-16T10:07:53.579Z,388
2018-01-16T10:09:03.032Z,388
2018-01-16T10:10:13.033Z,388
2018-01-16T10:11:22.319Z,368
2018-01-16T10:12:31.792Z,352
2018-01-16T10:13:40.974Z,476
2018-01-16T10:14:50.457Z,652
2018-01-16T10:16:00.178Z,1008
2018-01-16T10:17:09.894Z,1332
2018-01-16T10:18:19.158Z,1592
2018-01-16T10:19:28.871Z,1724
2018-01-16T10:20:38.334Z,1688
2018-01-16T10:21:47.523Z,1680
2018-01-16T10:22:57.240Z,1564
2018-01-16T10:24:06.729Z,1316
2018-01-16T10:25:16.469Z,1088
2018-01-16T10:26:25.926Z,880
2018-01-16T10:27:35.403Z,736
2018-01-16T10:28:44.358Z,676
2018-01-16T10:29:54.086Z,604
2018-01-16T10:31:03.287Z,608
2018-01-16T10:32:12.738Z,656
2018-01-16T10:33:22.270Z,668
2018-01-16T10:34:31.987Z,640
2018-01-16T10:35:41.709Z,688
2018-01-16T10:36:51.220Z,796
2018-01-16T10:38:00.941Z,864
2018-01-16T10:39:10.934Z,904
2018-01-16T10:40:20.509Z,976
2018-01-16T10:41:29.694Z,1088
2018-01-16T10:42:39.427Z,1204
2018-01-16T10:43:48.888Z,1404
2018-01-16T10:44:58.640Z,1656
2018-01-16T10:46:08.658Z,1780
2018-01-16T10:47:18.136Z,1784
2018-01-16T10:48:27.870Z,1716
2018-01-16T10:49:37.338Z,1748
2018-01-16T10:50:47.109Z,1848
2018-01-16T10:51:56.542Z,2056
2018-01-16T10:53:06.548Z,1988
2018-01-16T10:54:16.539Z,2076
2018-01-16T10:55:26.273Z,2216
2018-01-16T10:56:35.468Z,2444
2018-01-16T10:57:45.204Z,2804
2018-01-16T10:58:54.426Z,4112
2018-01-16T11:00:03.912Z,3016
2018-01-16T11:01:13.724Z,2552
2018-01-16T11:02:23.698Z,2160
2018-01-16T11:03:32.975Z,1996
2018-01-16T11:04:42.706Z,2008
2018-01-16T11:05:52.707Z,2104
2018-01-16T11:07:02.426Z,2168
2018-01-16T11:08:12.248Z,2124
2018-01-16T11:09:21.973Z,2048
2018-01-16T11:10:31.207Z,1908
2018-01-16T11:11:40.673Z,1788
2018-01-16T11:12:49.620Z,1748
2018-01-16T11:13:59.343Z,1672
2018-01-16T11:15:08.044Z,1616
2018-01-16T11:16:17.229Z,1544
2018-01-16T11:17:26.424Z,1564
2018-01-16T11:18:36.187Z,1652
2018-01-16T11:19:45.909Z,1816
2018-01-16T11:20:55.368Z,1920
2018-01-16T11:22:05.091Z,1796
2018-01-16T11:23:15.077Z,1740
2018-01-16T11:24:24.526Z,1396
2018-01-16T11:25:34.237Z,1268
2018-01-16T11:26:43.729Z,1292
2018-01-16T11:27:52.660Z,1236
2018-01-16T11:29:02.427Z,1356
2018-01-16T11:30:11.363Z,1296
2018-01-16T11:31:21.085Z,1148
2018-01-16T11:32:30.550Z,876
2018-01-16T11:33:40.525Z,888
2018-01-16T11:34:49.975Z,1064
2018-01-16T11:35:59.435Z,1244
2018-01-16T11:37:08.632Z,1332
2018-01-16T11:38:18.350Z,1708
2018-01-16T11:39:27.273Z,1880
2018-01-16T11:40:36.734Z,1972
2018-01-16T11:41:45.929Z,2084
2018-01-16T11:42:55.910Z,2220
2018-01-16T11:44:05.638Z,2608
2018-01-16T11:45:15.356Z,2972
2018-01-16T11:46:24.814Z,2992
2018-01-16T11:47:34.534Z,2512
2018-01-16T11:48:44.256Z,2312
2018-01-16T11:49:53.707Z,2212
2018-01-16T11:51:03.422Z,1796
2018-01-16T11:52:13.129Z,2152
2018-01-16T11:53:22.336Z,2044
2018-01-16T11:54:31.786Z,1828
2018-01-16T11:55:40.985Z,1928
2018-01-16T11:56:50.174Z,2096
2018-01-16T11:57:59.904Z,2104
2018-01-16T11:59:09.095Z,1892
2018-01-16T12:00:18.551Z,1808
2018-01-16T12:01:27.749Z,1944
2018-01-16T12:02:37.198Z,1864
2018-01-16T12:03:46.916Z,1532
2018-01-16T12:04:56.639Z,948
2018-01-16T12:06:06.358Z,952
2018-01-16T12:07:16.080Z,1140
2018-01-16T12:08:25.802Z,1368
2018-01-16T12:09:34.991Z,1456
2018-01-16T12:10:44.728Z,2020
2018-01-16T12:11:54.466Z,2312
2018-01-16T12:13:04.254Z,3044
2018-01-16T12:14:14.243Z,2424
2018-01-16T12:15:23.733Z,2720
2018-01-16T12:16:33.185Z,2376
2018-01-16T12:17:42.436Z,2408
2018-01-16T12:18:52.182Z,2312
2018-01-16T12:20:02.228Z,2320
2018-01-16T12:21:11.680Z,2288
2018-01-16T12:22:21.160Z,2184
2018-01-16T12:23:30.887Z,3060
2018-01-16T12:24:40.341Z,3788
2018-01-16T12:25:49.790Z,3576
2018-01-16T12:26:59.044Z,3428
2018-01-16T12:28:08.838Z,2304
2018-01-16T12:29:18.553Z,2588
2018-01-16T12:30:28.273Z,3596
2018-01-16T12:31:37.723Z,3756
2018-01-16T12:32:46.917Z,2664
2018-01-16T12:33:56.112Z,2124
2018-01-16T12:35:05.601Z,3616
2018-01-16T12:36:15.074Z,3688
2018-01-16T12:37:24.800Z,2380
2018-01-16T12:38:33.752Z,2120
2018-01-16T12:39:43.213Z,1744
2018-01-16T12:40:53.217Z,1648
2018-01-16T12:42:02.721Z,1560
2018-01-16T12:43:12.179Z,1332
2018-01-16T12:44:21.923Z,1288
2018-01-16T12:45:31.125Z,1268
2018-01-16T12:46:40.851Z,1352
2018-01-16T12:47:50.615Z,1492
2018-01-16T12:49:00.696Z,1540
2018-01-16T12:50:10.200Z,1464
2018-01-16T12:51:19.656Z,1396
2018-01-16T12:52:28.850Z,1452
2018-01-16T12:53:38.355Z,1480
2018-01-16T12:54:47.887Z,1752
2018-01-16T12:55:57.627Z,1724
2018-01-16T12:57:07.369Z,1696
2018-01-16T12:58:17.147Z,1560
2018-01-16T12:59:26.611Z,1424
2018-01-16T13:00:35.539Z,1116
2018-01-16T13:01:45.258Z,1072
2018-01-16T13:02:54.456Z,1300
2018-01-16T13:04:04.224Z,1464
2018-01-16T13:05:13.950Z,1356
2018-01-16T13:06:23.412Z,1388
2018-01-16T13:07:33.484Z,1352
2018-01-16T13:08:42.417Z,1468
2018-01-16T13:09:51.372Z,1424
2018-01-16T13:11:00.844Z,1252
2018-01-16T13:12:10.561Z,1028
2018-01-16T13:13:19.486Z,840
2018-01-16T13:14:29.165Z,860
2018-01-16T13:15:38.905Z,796
2018-01-16T13:16:48.633Z,776
2018-01-16T13:17:58.169Z,900
2018-01-16T13:19:07.368Z,1072
2018-01-16T13:20:17.363Z,1328
2018-01-16T13:21:26.827Z,1692
2018-01-16T13:22:36.307Z,2008
2018-01-16T13:23:45.314Z,2312
2018-01-16T13:24:55.098Z,2464
2018-01-16T13:26:04.829Z,2744
2018-01-16T13:27:14.861Z,2928
2018-01-16T13:28:24.324Z,2908
2018-01-16T13:29:33.285Z,2792
2018-01-16T13:30:42.218Z,2728
2018-01-16T13:31:51.682Z,2780
2018-01-16T13:33:01.397Z,2816
2018-01-16T13:34:11.385Z,2872
2018-01-16T13:35:20.896Z,2816
2018-01-16T13:36:30.171Z,2756
2018-01-16T13:37:39.450Z,2532
2018-01-16T13:38:49.168Z,2404
2018-01-16T13:39:58.881Z,2580
2018-01-16T13:41:07.808Z,2516
2018-01-16T13:42:17.568Z,1928
2018-01-16T13:43:26.829Z,1672
2018-01-16T13:44:36.919Z,1776
2018-01-16T13:45:46.902Z,1736
2018-01-16T13:46:56.355Z,1768
2018-01-16T13:48:06.083Z,1908
2018-01-16T13:49:15.279Z,2212
2018-01-16T13:50:25.015Z,1924
2018-01-16T13:51:34.475Z,2140
2018-01-16T13:52:43.412Z,2392
2018-01-16T13:53:53.130Z,2364
2018-01-16T13:55:02.851Z,2188
2018-01-16T13:56:12.577Z,1532
2018-01-16T13:57:22.323Z,1368
2018-01-16T13:58:31.811Z,836
2018-01-16T13:59:41.270Z,496
2018-01-16T14:00:50.486Z,300
2018-01-16T14:01:59.938Z,212
2018-01-16T14:03:08.905Z,224
2018-01-16T14:04:18.713Z,224
2018-01-16T14:05:28.446Z,156
2018-01-16T14:06:37.916Z,136
2018-01-16T14:07:47.377Z,140
2018-01-16T14:08:56.839Z,132
2018-01-16T14:10:06.298Z,148
2018-01-16T14:11:15.772Z,164
2018-01-16T14:12:25.289Z,180
2018-01-16T14:13:34.738Z,184
2018-01-16T14:14:43.926Z,200
2018-01-16T14:15:53.381Z,220
2018-01-16T14:17:03.365Z,228
2018-01-16T14:18:13.081Z,240
2018-01-16T14:19:22.272Z,240
2018-01-16T14:20:31.728Z,188
2018-01-16T14:21:41.445Z,272
2018-01-16T14:22:50.666Z,340
2018-01-16T14:24:00.646Z,408
2018-01-16T14:25:10.232Z,628
2018-01-16T14:26:20.234Z,768
2018-01-16T14:27:30.280Z,804
2018-01-16T14:28:39.733Z,800
2018-01-16T14:29:48.932Z,936
2018-01-16T14:30:58.387Z,984
2018-01-16T14:32:07.580Z,1016
2018-01-16T14:33:17.350Z,996
2018-01-16T14:34:26.830Z,972
2018-01-16T14:35:36.280Z,960
2018-01-16T14:36:46.001Z,976
2018-01-16T14:37:55.806Z,968
2018-01-16T14:39:05.517Z,1024
2018-01-16T14:40:14.444Z,1040
2018-01-16T14:41:23.380Z,976
2018-01-16T14:42:33.096Z,980
2018-01-16T14:43:42.548Z,920
2018-01-16T14:44:52.361Z,888
2018-01-16T14:46:01.869Z,848
2018-01-16T14:47:11.458Z,816
2018-01-16T14:48:21.107Z,800
2018-01-16T14:49:30.754Z,792
2018-01-16T14:50:39.950Z,796
2018-01-16T14:51:49.147Z,800
2018-01-16T14:52:58.660Z,756
2018-01-16T14:54:08.264Z,736
2018-01-16T14:55:17.755Z,696
2018-01-16T14:56:27.552Z,688
2018-01-16T14:57:37.198Z,696
2018-01-16T14:58:46.942Z,668
2018-01-16T14:59:56.427Z,656
2018-01-16T15:01:05.633Z,680
2018-01-16T15:02:15.102Z,704
2018-01-16T15:03:24.724Z,712
2018-01-16T15:04:34.209Z,728
2018-01-16T15:05:43.686Z,728
2018-01-16T15:06:52.649Z,692
2018-01-16T15:08:01.329Z,640
2018-01-16T15:09:10.820Z,600
2018-01-16T15:10:20.687Z,540
2018-01-16T15:11:30.242Z,472
2018-01-16T15:12:40.165Z,444
2018-01-16T15:13:49.621Z,428
2018-01-16T15:14:59.668Z,376
2018-01-16T15:16:09.585Z,464
2018-01-16T15:17:19.627Z,388
2018-01-16T15:18:29.077Z,340
2018-01-16T15:19:38.274Z,320
2018-01-16T15:20:47.465Z,320
2018-01-16T15:21:57.185Z,304
2018-01-16T15:23:06.376Z,288
2018-01-16T15:24:15.862Z,276
2018-01-16T15:25:25.848Z,260
2018-01-16T15:26:35.448Z,244
2018-01-16T15:27:45.258Z,228
2018-01-16T15:28:54.448Z,216
2018-01-16T15:30:03.658Z,200
2018-01-16T15:31:12.886Z,188
2018-01-16T15:32:22.904Z,188
2018-01-16T15:33:32.622Z,180
2018-01-16T15:34:42.606Z,188
2018-01-16T15:35:52.323Z,184
2018-01-16T15:37:01.775Z,184
2018-01-16T15:38:11.225Z,180
2018-01-16T15:39:20.971Z,176
2018-01-16T15:40:30.170Z,176
2018-01-16T15:41:39.400Z,168
2018-01-16T15:42:48.914Z,160
2018-01-16T15:43:58.895Z,148
2018-01-16T15:45:08.163Z,132
2018-01-16T15:46:17.902Z,124
2018-01-16T15:47:27.889Z,112
2018-01-16T15:48:37.606Z,108
2018-01-16T15:49:47.323Z,100
2018-01-16T15:50:57.045Z,88
2018-01-16T15:52:06.506Z,80
2018-01-16T15:53:15.446Z,72
2018-01-16T15:54:24.937Z,68
2018-01-16T15:55:35.018Z,64
2018-01-16T15:56:44.212Z,52
2018-01-16T15:57:53.139Z,52
2018-01-16T15:59:02.605Z,44
2018-01-16T16:00:11.528Z,44
2018-01-16T16:01:20.726Z,40
2018-01-16T16:02:30.712Z,40
2018-01-16T16:03:39.903Z,36
2018-01-16T16:04:49.358Z,32
2018-01-16T16:05:58.550Z,28
2018-01-16T16:07:08.082Z,24
2018-01-16T16:08:17.281Z,20
2018-01-16T16:09:27.296Z,16
2018-01-16T16:10:37.595Z,16
2018-01-16T16:11:46.537Z,12
2018-01-16T16:12:56.312Z,12
2018-01-16T16:14:06.322Z,12
2018-01-16T16:15:16.230Z,8
2018-01-16T16:16:25.524Z,8
2018-01-16T16:17:34.988Z,8
2018-01-16T16:18:44.027Z,8
2018-01-16T16:19:54.122Z,4
2018-01-16T16:21:04.010Z,4
2018-01-16T16:22:13.513Z,4
2018-01-16T16:23:23.314Z,4
2018-01-16T16:24:33.092Z,4